sensor_id;sensor_type;location;lat;lon;timestamp;temperature;humidity
64987;DHT22;67903;52.108;9.358;2023-12-22T00:00:23;4.70;79.30
64987;DHT22;67903;52.108;9.358;2023-12-22T00:03:08;4.50;81.20
64987;DHT22;67903;52.108;9.358;2023-12-22T00:05:54;4.20;86.10
64987;DHT22;67903;52.108;9.358;2023-12-22T00:08:39;3.30;95.50
64987;DHT22;67903;52.108;9.358;2023-12-22T00:11:25;3.10;99.50
64987;DHT22;67903;52.108;9.358;2023-12-22T00:14:11;3.10;99.90
64987;DHT22;67903;52.108;9.358;2023-12-22T00:16:57;3.10;99.90
64987;DHT22;67903;52.108;9.358;2023-12-22T00:19:42;3.30;99.90
64987;DHT22;67903;52.108;9.358;2023-12-22T00:22:28;3.30;99.20
64987;DHT22;67903;52.108;9.358;2023-12-22T00:25:13;3.30;99.30
64987;DHT22;67903;52.108;9.358;2023-12-22T00:27:59;3.30;98.50
64987;DHT22;67903;52.108;9.358;2023-12-22T00:30:44;3.50;94.70
64987;DHT22;67903;52.108;9.358;2023-12-22T00:33:30;3.70;92.20
64987;DHT22;67903;52.108;9.358;2023-12-22T00:36:15;3.90;90.90
64987;DHT22;67903;52.108;9.358;2023-12-22T00:39:03;3.90;90.30
64987;DHT22;67903;52.108;9.358;2023-12-22T00:41:48;4.10;87.80
64987;DHT22;67903;52.108;9.358;2023-12-22T00:44:34;4.20;87.50
64987;DHT22;67903;52.108;9.358;2023-12-22T00:47:19;4.10;86.80
64987;DHT22;67903;52.108;9.358;2023-12-22T00:50:05;4.00;90.90
64987;DHT22;67903;52.108;9.358;2023-12-22T00:52:52;4.00;89.00
64987;DHT22;67903;52.108;9.358;2023-12-22T00:55:37;3.90;91.80
64987;DHT22;67903;52.108;9.358;2023-12-22T00:58:23;3.90;88.40
64987;DHT22;67903;52.108;9.358;2023-12-22T01:01:08;3.90;92.30
64987;DHT22;67903;52.108;9.358;2023-12-22T01:03:54;3.70;91.40
64987;DHT22;67903;52.108;9.358;2023-12-22T01:06:39;3.30;96.90
64987;DHT22;67903;52.108;9.358;2023-12-22T01:09:25;2.90;99.90
64987;DHT22;67903;52.108;9.358;2023-12-22T01:12:11;2.80;99.90
64987;DHT22;67903;52.108;9.358;2023-12-22T01:14:57;2.70;99.90
64987;DHT22;67903;52.108;9.358;2023-12-22T01:17:42;2.70;99.90
64987;DHT22;67903;52.108;9.358;2023-12-22T01:20:27;2.90;99.90
64987;DHT22;67903;52.108;9.358;2023-12-22T01:23:13;2.90;99.90
64987;DHT22;67903;52.108;9.358;2023-12-22T01:25:58;3.00;99.90
64987;DHT22;67903;52.108;9.358;2023-12-22T01:28:44;3.00;99.90
64987;DHT22;67903;52.108;9.358;2023-12-22T01:31:29;3.20;99.90
64987;DHT22;67903;52.108;9.358;2023-12-22T01:34:15;3.10;99.90
64987;DHT22;67903;52.108;9.358;2023-12-22T01:37:00;3.20;99.90
64987;DHT22;67903;52.108;9.358;2023-12-22T01:39:46;3.30;99.90
64987;DHT22;67903;52.108;9.358;2023-12-22T01:42:31;3.50;97.70
64987;DHT22;67903;52.108;9.358;2023-12-22T01:45:17;3.50;98.20
64987;DHT22;67903;52.108;9.358;2023-12-22T01:48:03;3.70;93.70
64987;DHT22;67903;52.108;9.358;2023-12-22T01:50:53;3.70;94.40
64987;DHT22;67903;52.108;9.358;2023-12-22T01:53:40;3.70;91.90
64987;DHT22;67903;52.108;9.358;2023-12-22T01:56:25;3.80;89.90
64987;DHT22;67903;52.108;9.358;2023-12-22T01:59:12;3.90;87.90
64987;DHT22;67903;52.108;9.358;2023-12-22T02:01:57;4.00;88.00
64987;DHT22;67903;52.108;9.358;2023-12-22T02:04:43;4.10;85.30
64987;DHT22;67903;52.108;9.358;2023-12-22T02:07:29;4.00;85.00
64987;DHT22;67903;52.108;9.358;2023-12-22T02:10:16;4.00;84.70
64987;DHT22;67903;52.108;9.358;2023-12-22T02:13:05;4.00;84.50
64987;DHT22;67903;52.108;9.358;2023-12-22T02:16:00;4.10;82.30
64987;DHT22;67903;52.108;9.358;2023-12-22T02:18:50;4.20;80.00
64987;DHT22;67903;52.108;9.358;2023-12-22T02:22:05;4.20;80.20
64987;DHT22;67903;52.108;9.358;2023-12-22T02:24:54;4.10;80.20
64987;DHT22;67903;52.108;9.358;2023-12-22T02:27:48;4.20;79.80
64987;DHT22;67903;52.108;9.358;2023-12-22T02:33:27;4.10;79.70
64987;DHT22;67903;52.108;9.358;2023-12-22T02:36:15;4.00;81.10
64987;DHT22;67903;52.108;9.358;2023-12-22T02:39:02;4.00;81.30
64987;DHT22;67903;52.108;9.358;2023-12-22T02:41:48;4.00;80.50
64987;DHT22;67903;52.108;9.358;2023-12-22T02:44:34;4.00;81.50
64987;DHT22;67903;52.108;9.358;2023-12-22T02:47:20;4.10;78.80
64987;DHT22;67903;52.108;9.358;2023-12-22T02:50:07;4.10;78.40
64987;DHT22;67903;52.108;9.358;2023-12-22T02:52:53;4.10;78.70
64987;DHT22;67903;52.108;9.358;2023-12-22T02:55:38;4.10;78.50
64987;DHT22;67903;52.108;9.358;2023-12-22T02:58:24;4.10;78.70
64987;DHT22;67903;52.108;9.358;2023-12-22T03:01:10;4.10;78.90
64987;DHT22;67903;52.108;9.358;2023-12-22T03:03:55;4.10;79.00
64987;DHT22;67903;52.108;9.358;2023-12-22T03:06:41;4.10;78.40
64987;DHT22;67903;52.108;9.358;2023-12-22T03:09:26;4.20;78.20
64987;DHT22;67903;52.108;9.358;2023-12-22T03:12:12;4.20;78.60
64987;DHT22;67903;52.108;9.358;2023-12-22T03:14:57;4.10;78.10
64987;DHT22;67903;52.108;9.358;2023-12-22T03:17:43;4.10;78.70
64987;DHT22;67903;52.108;9.358;2023-12-22T03:20:28;4.10;78.30
64987;DHT22;67903;52.108;9.358;2023-12-22T03:23:14;4.10;79.10
64987;DHT22;67903;52.108;9.358;2023-12-22T03:26:03;4.20;77.10
64987;DHT22;67903;52.108;9.358;2023-12-22T03:28:49;4.20;76.80
64987;DHT22;67903;52.108;9.358;2023-12-22T03:31:34;4.10;77.20
64987;DHT22;67903;52.108;9.358;2023-12-22T03:34:20;4.20;75.60
64987;DHT22;67903;52.108;9.358;2023-12-22T03:37:05;4.20;76.00
64987;DHT22;67903;52.108;9.358;2023-12-22T03:39:51;4.10;75.90
64987;DHT22;67903;52.108;9.358;2023-12-22T03:42:36;4.10;77.10
64987;DHT22;67903;52.108;9.358;2023-12-22T03:45:21;4.10;77.10
64987;DHT22;67903;52.108;9.358;2023-12-22T03:48:07;4.00;77.50
64987;DHT22;67903;52.108;9.358;2023-12-22T03:50:52;4.10;76.50
64987;DHT22;67903;52.108;9.358;2023-12-22T03:53:38;4.20;75.10
64987;DHT22;67903;52.108;9.358;2023-12-22T03:56:24;4.20;76.00
64987;DHT22;67903;52.108;9.358;2023-12-22T03:59:09;4.10;76.60
64987;DHT22;67903;52.108;9.358;2023-12-22T04:01:55;4.10;76.40
64987;DHT22;67903;52.108;9.358;2023-12-22T04:04:42;4.10;76.20
64987;DHT22;67903;52.108;9.358;2023-12-22T04:07:27;4.10;76.00
64987;DHT22;67903;52.108;9.358;2023-12-22T04:10:16;4.10;76.50
64987;DHT22;67903;52.108;9.358;2023-12-22T04:13:03;4.10;76.10
64987;DHT22;67903;52.108;9.358;2023-12-22T04:15:49;4.10;76.20
64987;DHT22;67903;52.108;9.358;2023-12-22T04:18:34;4.10;75.70
64987;DHT22;67903;52.108;9.358;2023-12-22T04:21:20;4.30;74.30
64987;DHT22;67903;52.108;9.358;2023-12-22T04:24:05;4.40;73.50
64987;DHT22;67903;52.108;9.358;2023-12-22T04:26:51;4.40;72.70
64987;DHT22;67903;52.108;9.358;2023-12-22T04:29:36;4.50;73.10
64987;DHT22;67903;52.108;9.358;2023-12-22T04:32:22;4.50;72.90
64987;DHT22;67903;52.108;9.358;2023-12-22T04:35:08;4.50;73.20
64987;DHT22;67903;52.108;9.358;2023-12-22T04:37:53;4.40;74.50
64987;DHT22;67903;52.108;9.358;2023-12-22T04:40:39;4.30;74.40
64987;DHT22;67903;52.108;9.358;2023-12-22T04:43:24;4.30;73.80
64987;DHT22;67903;52.108;9.358;2023-12-22T04:46:10;4.30;74.70
64987;DHT22;67903;52.108;9.358;2023-12-22T04:48:56;4.40;73.40
64987;DHT22;67903;52.108;9.358;2023-12-22T04:51:42;4.40;73.20
64987;DHT22;67903;52.108;9.358;2023-12-22T04:54:27;4.50;74.30
64987;DHT22;67903;52.108;9.358;2023-12-22T04:57:12;4.40;74.60
64987;DHT22;67903;52.108;9.358;2023-12-22T05:00:03;4.40;75.30
64987;DHT22;67903;52.108;9.358;2023-12-22T05:02:49;4.40;76.30
64987;DHT22;67903;52.108;9.358;2023-12-22T05:05:34;4.40;76.50
64987;DHT22;67903;52.108;9.358;2023-12-22T05:08:20;4.10;83.60
64987;DHT22;67903;52.108;9.358;2023-12-22T05:11:05;4.00;83.30
64987;DHT22;67903;52.108;9.358;2023-12-22T05:13:51;4.00;83.00
64987;DHT22;67903;52.108;9.358;2023-12-22T05:16:37;4.00;82.20
64987;DHT22;67903;52.108;9.358;2023-12-22T05:19:22;4.10;80.80
64987;DHT22;67903;52.108;9.358;2023-12-22T05:22:08;4.20;80.50
64987;DHT22;67903;52.108;9.358;2023-12-22T05:24:54;4.30;79.00
64987;DHT22;67903;52.108;9.358;2023-12-22T05:27:39;4.30;78.50
64987;DHT22;67903;52.108;9.358;2023-12-22T05:30:27;4.40;79.00
64987;DHT22;67903;52.108;9.358;2023-12-22T05:33:12;4.30;79.00
64987;DHT22;67903;52.108;9.358;2023-12-22T05:35:57;4.40;77.90
64987;DHT22;67903;52.108;9.358;2023-12-22T05:38:43;4.40;76.40
64987;DHT22;67903;52.108;9.358;2023-12-22T05:41:28;4.50;75.50
64987;DHT22;67903;52.108;9.358;2023-12-22T05:44:14;4.50;75.20
64987;DHT22;67903;52.108;9.358;2023-12-22T05:46:59;4.50;76.20
64987;DHT22;67903;52.108;9.358;2023-12-22T05:49:45;4.50;75.70
64987;DHT22;67903;52.108;9.358;2023-12-22T05:52:31;4.40;76.60
64987;DHT22;67903;52.108;9.358;2023-12-22T05:55:16;4.40;77.60
64987;DHT22;67903;52.108;9.358;2023-12-22T05:58:02;4.00;85.30
64987;DHT22;67903;52.108;9.358;2023-12-22T06:00:48;3.80;87.00
64987;DHT22;67903;52.108;9.358;2023-12-22T06:03:35;3.70;88.60
64987;DHT22;67903;52.108;9.358;2023-12-22T06:06:21;3.80;86.90
64987;DHT22;67903;52.108;9.358;2023-12-22T06:09:07;3.90;87.50
64987;DHT22;67903;52.108;9.358;2023-12-22T06:11:53;3.90;86.90
64987;DHT22;67903;52.108;9.358;2023-12-22T06:14:39;3.80;87.20
64987;DHT22;67903;52.108;9.358;2023-12-22T06:17:24;3.90;87.10
64987;DHT22;67903;52.108;9.358;2023-12-22T06:20:10;4.00;83.80
64987;DHT22;67903;52.108;9.358;2023-12-22T06:22:56;4.20;83.00
64987;DHT22;67903;52.108;9.358;2023-12-22T06:25:41;4.10;82.70
64987;DHT22;67903;52.108;9.358;2023-12-22T06:28:27;4.30;80.60
64987;DHT22;67903;52.108;9.358;2023-12-22T06:31:20;4.30;80.60
64987;DHT22;67903;52.108;9.358;2023-12-22T06:34:06;4.40;80.00
64987;DHT22;67903;52.108;9.358;2023-12-22T06:36:51;4.40;79.30
64987;DHT22;67903;52.108;9.358;2023-12-22T06:39:37;4.40;79.40
64987;DHT22;67903;52.108;9.358;2023-12-22T06:42:23;4.40;78.60
64987;DHT22;67903;52.108;9.358;2023-12-22T06:45:09;4.40;78.20
64987;DHT22;67903;52.108;9.358;2023-12-22T06:47:55;4.50;77.20
64987;DHT22;67903;52.108;9.358;2023-12-22T06:50:41;4.50;77.50
64987;DHT22;67903;52.108;9.358;2023-12-22T06:53:31;4.50;77.60
64987;DHT22;67903;52.108;9.358;2023-12-22T06:56:20;4.50;77.90
64987;DHT22;67903;52.108;9.358;2023-12-22T06:59:06;4.50;77.50
64987;DHT22;67903;52.108;9.358;2023-12-22T07:01:52;4.50;77.40
64987;DHT22;67903;52.108;9.358;2023-12-22T07:08:08;4.50;76.50
64987;DHT22;67903;52.108;9.358;2023-12-22T07:10:54;4.50;76.50
64987;DHT22;67903;52.108;9.358;2023-12-22T07:13:39;4.70;75.90
64987;DHT22;67903;52.108;9.358;2023-12-22T07:16:25;4.70;75.90
64987;DHT22;67903;52.108;9.358;2023-12-22T07:19:11;4.70;75.90
64987;DHT22;67903;52.108;9.358;2023-12-22T07:21:58;4.70;76.50
64987;DHT22;67903;52.108;9.358;2023-12-22T07:24:43;4.70;74.90
64987;DHT22;67903;52.108;9.358;2023-12-22T07:27:29;4.70;75.50
64987;DHT22;67903;52.108;9.358;2023-12-22T07:30:15;4.70;75.40
64987;DHT22;67903;52.108;9.358;2023-12-22T07:33:01;4.80;75.00
64987;DHT22;67903;52.108;9.358;2023-12-22T07:35:46;4.80;74.60
64987;DHT22;67903;52.108;9.358;2023-12-22T07:38:32;4.70;75.30
64987;DHT22;67903;52.108;9.358;2023-12-22T07:41:17;4.90;73.90
64987;DHT22;67903;52.108;9.358;2023-12-22T07:44:04;4.90;73.60
64987;DHT22;67903;52.108;9.358;2023-12-22T07:46:59;4.90;73.10
64987;DHT22;67903;52.108;9.358;2023-12-22T07:49:47;4.80;73.20
64987;DHT22;67903;52.108;9.358;2023-12-22T07:52:35;5.00;72.50
64987;DHT22;67903;52.108;9.358;2023-12-22T07:55:25;5.00;72.50
64987;DHT22;67903;52.108;9.358;2023-12-22T07:58:10;5.10;70.90
64987;DHT22;67903;52.108;9.358;2023-12-22T08:00:56;5.10;71.40
64987;DHT22;67903;52.108;9.358;2023-12-22T08:03:43;5.30;70.50
64987;DHT22;67903;52.108;9.358;2023-12-22T08:06:29;5.30;71.20
64987;DHT22;67903;52.108;9.358;2023-12-22T08:09:14;5.30;71.20
64987;DHT22;67903;52.108;9.358;2023-12-22T08:12:00;5.30;71.60
64987;DHT22;67903;52.108;9.358;2023-12-22T08:14:47;5.30;70.50
64987;DHT22;67903;52.108;9.358;2023-12-22T08:17:32;5.40;70.40
64987;DHT22;67903;52.108;9.358;2023-12-22T08:20:19;5.30;71.20
64987;DHT22;67903;52.108;9.358;2023-12-22T08:23:13;5.50;71.20
64987;DHT22;67903;52.108;9.358;2023-12-22T08:25:59;5.40;70.50
64987;DHT22;67903;52.108;9.358;2023-12-22T08:28:45;5.50;69.70
64987;DHT22;67903;52.108;9.358;2023-12-22T08:31:30;5.50;71.10
64987;DHT22;67903;52.108;9.358;2023-12-22T08:34:16;5.50;71.30
64987;DHT22;67903;52.108;9.358;2023-12-22T08:37:01;5.50;71.20
64987;DHT22;67903;52.108;9.358;2023-12-22T08:39:47;5.50;70.20
64987;DHT22;67903;52.108;9.358;2023-12-22T08:42:32;5.60;70.10
64987;DHT22;67903;52.108;9.358;2023-12-22T08:45:18;5.60;70.00
64987;DHT22;67903;52.108;9.358;2023-12-22T08:48:04;5.70;69.30
64987;DHT22;67903;52.108;9.358;2023-12-22T08:50:53;5.70;69.50
64987;DHT22;67903;52.108;9.358;2023-12-22T08:53:38;5.80;69.50
64987;DHT22;67903;52.108;9.358;2023-12-22T08:56:25;5.70;70.30
64987;DHT22;67903;52.108;9.358;2023-12-22T08:59:11;5.70;69.90
64987;DHT22;67903;52.108;9.358;2023-12-22T09:01:57;5.70;70.30
64987;DHT22;67903;52.108;9.358;2023-12-22T09:04:43;5.60;70.50
64987;DHT22;67903;52.108;9.358;2023-12-22T09:07:28;5.70;70.30
64987;DHT22;67903;52.108;9.358;2023-12-22T09:10:13;5.60;70.00
64987;DHT22;67903;52.108;9.358;2023-12-22T09:12:59;5.60;70.60
64987;DHT22;67903;52.108;9.358;2023-12-22T09:15:46;5.60;71.00
64987;DHT22;67903;52.108;9.358;2023-12-22T09:18:34;5.70;70.70
64987;DHT22;67903;52.108;9.358;2023-12-22T09:21:19;5.70;70.90
64987;DHT22;67903;52.108;9.358;2023-12-22T09:24:05;5.70;70.50
64987;DHT22;67903;52.108;9.358;2023-12-22T09:26:51;5.80;70.90
64987;DHT22;67903;52.108;9.358;2023-12-22T09:29:37;5.80;70.80
64987;DHT22;67903;52.108;9.358;2023-12-22T09:32:22;5.80;70.50
64987;DHT22;67903;52.108;9.358;2023-12-22T09:35:07;5.70;71.50
64987;DHT22;67903;52.108;9.358;2023-12-22T09:37:53;5.70;71.50
64987;DHT22;67903;52.108;9.358;2023-12-22T09:40:39;5.80;71.70
64987;DHT22;67903;52.108;9.358;2023-12-22T09:43:25;5.80;71.20
64987;DHT22;67903;52.108;9.358;2023-12-22T09:46:11;5.70;71.80
64987;DHT22;67903;52.108;9.358;2023-12-22T09:48:57;5.70;71.90
64987;DHT22;67903;52.108;9.358;2023-12-22T09:51:43;5.70;72.10
64987;DHT22;67903;52.108;9.358;2023-12-22T09:54:31;5.70;73.00
64987;DHT22;67903;52.108;9.358;2023-12-22T09:57:17;5.70;72.70
64987;DHT22;67903;52.108;9.358;2023-12-22T10:00:14;5.70;73.00
64987;DHT22;67903;52.108;9.358;2023-12-22T10:03:00;5.70;73.20
64987;DHT22;67903;52.108;9.358;2023-12-22T10:05:46;5.80;72.90
64987;DHT22;67903;52.108;9.358;2023-12-22T10:08:33;5.90;72.30
64987;DHT22;67903;52.108;9.358;2023-12-22T10:11:18;5.90;72.70
64987;DHT22;67903;52.108;9.358;2023-12-22T10:14:06;5.90;72.50
64987;DHT22;67903;52.108;9.358;2023-12-22T10:16:53;5.90;72.90
64987;DHT22;67903;52.108;9.358;2023-12-22T10:19:39;6.00;72.80
64987;DHT22;67903;52.108;9.358;2023-12-22T10:22:25;6.00;72.60
64987;DHT22;67903;52.108;9.358;2023-12-22T10:25:10;6.10;72.80
64987;DHT22;67903;52.108;9.358;2023-12-22T10:27:56;6.10;71.90
64987;DHT22;67903;52.108;9.358;2023-12-22T10:30:42;6.10;72.70
64987;DHT22;67903;52.108;9.358;2023-12-22T10:33:30;6.10;72.90
64987;DHT22;67903;52.108;9.358;2023-12-22T10:36:15;6.20;72.40
64987;DHT22;67903;52.108;9.358;2023-12-22T10:39:00;6.20;72.80
64987;DHT22;67903;52.108;9.358;2023-12-22T10:41:46;6.20;73.10
64987;DHT22;67903;52.108;9.358;2023-12-22T10:44:32;6.20;72.70
64987;DHT22;67903;52.108;9.358;2023-12-22T10:47:17;6.30;73.40
64987;DHT22;67903;52.108;9.358;2023-12-22T10:50:03;6.30;73.30
64987;DHT22;67903;52.108;9.358;2023-12-22T10:52:52;6.30;73.70
64987;DHT22;67903;52.108;9.358;2023-12-22T10:55:39;6.30;73.50
64987;DHT22;67903;52.108;9.358;2023-12-22T10:58:24;6.30;73.90
64987;DHT22;67903;52.108;9.358;2023-12-22T11:01:11;6.30;74.60
64987;DHT22;67903;52.108;9.358;2023-12-22T11:04:02;6.40;74.00
64987;DHT22;67903;52.108;9.358;2023-12-22T11:06:49;6.40;73.60
64987;DHT22;67903;52.108;9.358;2023-12-22T11:09:38;6.40;73.50
64987;DHT22;67903;52.108;9.358;2023-12-22T11:12:26;6.30;73.60
64987;DHT22;67903;52.108;9.358;2023-12-22T11:15:14;6.30;74.50
64987;DHT22;67903;52.108;9.358;2023-12-22T11:18:01;6.30;73.50
64987;DHT22;67903;52.108;9.358;2023-12-22T11:20:48;6.40;74.50
64987;DHT22;67903;52.108;9.358;2023-12-22T11:23:36;6.40;73.80
64987;DHT22;67903;52.108;9.358;2023-12-22T11:26:23;6.40;74.30
64987;DHT22;67903;52.108;9.358;2023-12-22T11:29:09;6.40;74.60
64987;DHT22;67903;52.108;9.358;2023-12-22T11:31:57;6.40;73.80
64987;DHT22;67903;52.108;9.358;2023-12-22T11:34:43;6.40;74.40
64987;DHT22;67903;52.108;9.358;2023-12-22T11:37:31;6.40;74.20
64987;DHT22;67903;52.108;9.358;2023-12-22T11:40:17;6.40;73.80
64987;DHT22;67903;52.108;9.358;2023-12-22T11:43:03;6.40;74.30
64987;DHT22;67903;52.108;9.358;2023-12-22T11:45:50;6.40;74.40
64987;DHT22;67903;52.108;9.358;2023-12-22T11:48:35;6.40;74.10
64987;DHT22;67903;52.108;9.358;2023-12-22T11:51:22;6.50;73.50
64987;DHT22;67903;52.108;9.358;2023-12-22T11:57:37;6.60;74.40
64987;DHT22;67903;52.108;9.358;2023-12-22T12:03:09;6.60;74.60
64987;DHT22;67903;52.108;9.358;2023-12-22T12:09:03;6.60;74.30
64987;DHT22;67903;52.108;9.358;2023-12-22T12:12:08;6.60;74.40
64987;DHT22;67903;52.108;9.358;2023-12-22T12:14:58;6.60;74.30
64987;DHT22;67903;52.108;9.358;2023-12-22T12:17:52;6.60;74.90
64987;DHT22;67903;52.108;9.358;2023-12-22T12:20:38;6.60;74.80
64987;DHT22;67903;52.108;9.358;2023-12-22T12:23:24;6.60;74.70
64987;DHT22;67903;52.108;9.358;2023-12-22T12:26:11;6.60;74.40
64987;DHT22;67903;52.108;9.358;2023-12-22T12:28:57;6.60;74.10
64987;DHT22;67903;52.108;9.358;2023-12-22T12:31:43;6.60;74.80
64987;DHT22;67903;52.108;9.358;2023-12-22T12:34:29;6.60;74.30
64987;DHT22;67903;52.108;9.358;2023-12-22T12:37:16;6.60;74.40
64987;DHT22;67903;52.108;9.358;2023-12-22T12:40:02;6.60;73.60
64987;DHT22;67903;52.108;9.358;2023-12-22T12:42:50;6.60;74.10
64987;DHT22;67903;52.108;9.358;2023-12-22T12:45:35;6.70;74.10
64987;DHT22;67903;52.108;9.358;2023-12-22T12:48:21;6.70;74.00
64987;DHT22;67903;52.108;9.358;2023-12-22T12:51:08;6.70;74.30
64987;DHT22;67903;52.108;9.358;2023-12-22T12:53:53;6.70;74.20
64987;DHT22;67903;52.108;9.358;2023-12-22T12:56:43;6.70;73.90
64987;DHT22;67903;52.108;9.358;2023-12-22T12:59:29;6.70;73.40
64987;DHT22;67903;52.108;9.358;2023-12-22T13:02:16;6.60;74.20
64987;DHT22;67903;52.108;9.358;2023-12-22T13:05:02;6.60;75.00
64987;DHT22;67903;52.108;9.358;2023-12-22T13:07:50;6.60;74.90
64987;DHT22;67903;52.108;9.358;2023-12-22T13:10:37;6.60;74.80
64987;DHT22;67903;52.108;9.358;2023-12-22T13:13:23;6.50;75.10
64987;DHT22;67903;52.108;9.358;2023-12-22T13:16:09;6.60;75.00
64987;DHT22;67903;52.108;9.358;2023-12-22T13:18:55;6.50;75.10
64987;DHT22;67903;52.108;9.358;2023-12-22T13:21:41;6.50;75.30
64987;DHT22;67903;52.108;9.358;2023-12-22T13:24:27;6.50;74.70
64987;DHT22;67903;52.108;9.358;2023-12-22T13:27:13;6.50;75.40
64987;DHT22;67903;52.108;9.358;2023-12-22T13:30:00;6.40;75.60
64987;DHT22;67903;52.108;9.358;2023-12-22T13:32:46;6.40;76.00
64987;DHT22;67903;52.108;9.358;2023-12-22T13:35:32;6.50;75.20
64987;DHT22;67903;52.108;9.358;2023-12-22T13:38:25;6.40;75.50
64987;DHT22;67903;52.108;9.358;2023-12-22T13:41:11;6.50;75.20
64987;DHT22;67903;52.108;9.358;2023-12-22T13:43:56;6.40;75.70
64987;DHT22;67903;52.108;9.358;2023-12-22T13:46:43;6.40;75.80
64987;DHT22;67903;52.108;9.358;2023-12-22T13:49:33;6.40;75.00
64987;DHT22;67903;52.108;9.358;2023-12-22T13:52:30;6.40;75.80
64987;DHT22;67903;52.108;9.358;2023-12-22T13:55:21;6.40;76.20
64987;DHT22;67903;52.108;9.358;2023-12-22T13:58:09;6.40;75.70
64987;DHT22;67903;52.108;9.358;2023-12-22T14:00:57;6.40;75.70
64987;DHT22;67903;52.108;9.358;2023-12-22T14:03:43;6.50;75.30
64987;DHT22;67903;52.108;9.358;2023-12-22T14:06:31;6.50;75.50
64987;DHT22;67903;52.108;9.358;2023-12-22T14:09:17;6.50;75.50
64987;DHT22;67903;52.108;9.358;2023-12-22T14:12:07;6.40;75.20
64987;DHT22;67903;52.108;9.358;2023-12-22T14:14:59;6.40;75.70
64987;DHT22;67903;52.108;9.358;2023-12-22T14:17:45;6.40;75.80
64987;DHT22;67903;52.108;9.358;2023-12-22T14:20:32;6.30;76.30
64987;DHT22;67903;52.108;9.358;2023-12-22T14:23:18;6.40;75.40
64987;DHT22;67903;52.108;9.358;2023-12-22T14:26:03;6.40;75.70
64987;DHT22;67903;52.108;9.358;2023-12-22T14:28:49;6.30;76.00
64987;DHT22;67903;52.108;9.358;2023-12-22T14:31:37;6.30;76.10
64987;DHT22;67903;52.108;9.358;2023-12-22T14:34:22;6.30;75.90
64987;DHT22;67903;52.108;9.358;2023-12-22T14:37:08;6.40;75.50
64987;DHT22;67903;52.108;9.358;2023-12-22T14:39:53;6.40;75.10
64987;DHT22;67903;52.108;9.358;2023-12-22T14:42:39;6.40;73.50
64987;DHT22;67903;52.108;9.358;2023-12-22T14:45:25;6.40;74.10
64987;DHT22;67903;52.108;9.358;2023-12-22T14:48:10;6.40;73.50
64987;DHT22;67903;52.108;9.358;2023-12-22T14:50:56;6.40;73.70
64987;DHT22;67903;52.108;9.358;2023-12-22T14:53:42;6.30;74.50
64987;DHT22;67903;52.108;9.358;2023-12-22T14:56:27;6.30;75.80
64987;DHT22;67903;52.108;9.358;2023-12-22T14:59:13;6.10;79.60
64987;DHT22;67903;52.108;9.358;2023-12-22T15:02:02;6.10;78.90
64987;DHT22;67903;52.108;9.358;2023-12-22T15:04:47;6.00;79.80
64987;DHT22;67903;52.108;9.358;2023-12-22T15:07:33;6.10;79.00
64987;DHT22;67903;52.108;9.358;2023-12-22T15:10:19;6.00;79.00
64987;DHT22;67903;52.108;9.358;2023-12-22T15:13:04;6.00;80.00
64987;DHT22;67903;52.108;9.358;2023-12-22T15:15:50;5.90;80.40
64987;DHT22;67903;52.108;9.358;2023-12-22T15:18:35;5.90;79.70
64987;DHT22;67903;52.108;9.358;2023-12-22T15:21:22;5.90;81.10
64987;DHT22;67903;52.108;9.358;2023-12-22T15:24:08;5.80;80.80
64987;DHT22;67903;52.108;9.358;2023-12-22T15:26:54;5.80;81.00
64987;DHT22;67903;52.108;9.358;2023-12-22T15:29:39;5.80;81.40
64987;DHT22;67903;52.108;9.358;2023-12-22T15:32:25;5.90;82.00
64987;DHT22;67903;52.108;9.358;2023-12-22T15:35:10;5.90;81.30
64987;DHT22;67903;52.108;9.358;2023-12-22T15:37:56;5.90;81.40
64987;DHT22;67903;52.108;9.358;2023-12-22T15:40:42;5.90;80.90
64987;DHT22;67903;52.108;9.358;2023-12-22T15:43:28;6.00;80.90
64987;DHT22;67903;52.108;9.358;2023-12-22T15:46:16;6.00;81.00
64987;DHT22;67903;52.108;9.358;2023-12-22T15:49:02;6.10;80.40
64987;DHT22;67903;52.108;9.358;2023-12-22T15:51:47;6.20;79.70
64987;DHT22;67903;52.108;9.358;2023-12-22T15:54:33;6.20;79.70
64987;DHT22;67903;52.108;9.358;2023-12-22T15:57:19;6.30;78.70
64987;DHT22;67903;52.108;9.358;2023-12-22T16:00:07;6.30;79.60
64987;DHT22;67903;52.108;9.358;2023-12-22T16:02:53;6.30;79.00
64987;DHT22;67903;52.108;9.358;2023-12-22T16:05:39;6.40;79.90
64987;DHT22;67903;52.108;9.358;2023-12-22T16:08:24;6.50;79.00
64987;DHT22;67903;52.108;9.358;2023-12-22T16:11:10;6.40;80.00
64987;DHT22;67903;52.108;9.358;2023-12-22T16:13:56;6.40;79.20
64987;DHT22;67903;52.108;9.358;2023-12-22T16:16:42;6.50;79.10
64987;DHT22;67903;52.108;9.358;2023-12-22T16:19:28;6.50;79.10
64987;DHT22;67903;52.108;9.358;2023-12-22T16:22:14;6.70;76.90
64987;DHT22;67903;52.108;9.358;2023-12-22T16:24:59;6.60;78.20
64987;DHT22;67903;52.108;9.358;2023-12-22T16:27:45;6.60;78.60
64987;DHT22;67903;52.108;9.358;2023-12-22T16:30:31;6.70;78.40
64987;DHT22;67903;52.108;9.358;2023-12-22T16:33:16;6.70;78.10
64987;DHT22;67903;52.108;9.358;2023-12-22T16:36:08;6.70;77.90
64987;DHT22;67903;52.108;9.358;2023-12-22T16:38:53;6.70;77.70
64987;DHT22;67903;52.108;9.358;2023-12-22T16:41:39;6.70;78.00
64987;DHT22;67903;52.108;9.358;2023-12-22T16:44:24;6.60;78.40
64987;DHT22;67903;52.108;9.358;2023-12-22T16:47:10;6.60;78.90
64987;DHT22;67903;52.108;9.358;2023-12-22T16:49:56;6.70;78.10
64987;DHT22;67903;52.108;9.358;2023-12-22T16:52:43;6.70;78.20
64987;DHT22;67903;52.108;9.358;2023-12-22T16:55:28;6.60;78.60
64987;DHT22;67903;52.108;9.358;2023-12-22T16:58:14;6.60;79.40
64987;DHT22;67903;52.108;9.358;2023-12-22T17:00:59;6.50;79.10
64987;DHT22;67903;52.108;9.358;2023-12-22T17:03:48;6.50;78.70
64987;DHT22;67903;52.108;9.358;2023-12-22T17:06:34;6.60;78.00
64987;DHT22;67903;52.108;9.358;2023-12-22T17:09:20;6.50;78.60
64987;DHT22;67903;52.108;9.358;2023-12-22T17:12:08;6.60;78.50
64987;DHT22;67903;52.108;9.358;2023-12-22T17:14:54;6.60;78.10
64987;DHT22;67903;52.108;9.358;2023-12-22T17:17:40;6.60;78.20
64987;DHT22;67903;52.108;9.358;2023-12-22T17:20:25;6.50;78.50
64987;DHT22;67903;52.108;9.358;2023-12-22T17:23:11;6.50;78.40
64987;DHT22;67903;52.108;9.358;2023-12-22T17:25:56;6.50;78.70
64987;DHT22;67903;52.108;9.358;2023-12-22T17:28:43;6.50;78.20
64987;DHT22;67903;52.108;9.358;2023-12-22T17:31:29;6.50;78.70
64987;DHT22;67903;52.108;9.358;2023-12-22T17:34:18;6.50;78.20
64987;DHT22;67903;52.108;9.358;2023-12-22T17:37:04;6.50;77.30
64987;DHT22;67903;52.108;9.358;2023-12-22T17:39:50;6.60;76.20
64987;DHT22;67903;52.108;9.358;2023-12-22T17:42:36;6.70;76.00
64987;DHT22;67903;52.108;9.358;2023-12-22T17:45:21;6.60;75.20
64987;DHT22;67903;52.108;9.358;2023-12-22T17:48:07;6.70;74.70
64987;DHT22;67903;52.108;9.358;2023-12-22T17:50:53;6.70;74.40
64987;DHT22;67903;52.108;9.358;2023-12-22T17:53:38;6.70;73.60
64987;DHT22;67903;52.108;9.358;2023-12-22T17:56:24;6.80;73.60
64987;DHT22;67903;52.108;9.358;2023-12-22T17:59:10;6.80;72.70
64987;DHT22;67903;52.108;9.358;2023-12-22T18:01:55;6.70;73.20